UERP 271100Z 10003MPS 9999 -SN NSC M39/M42 Q1007 R35/890239 NOSIG RMK QFE711
QNH:(hPa/inHg/mmHg)1007 / 29.74 / 755
QFE:(hPa/inHg/mmHg)945 / 27.91 / 709
Temperature-39
Dew Point-42
Visibility> 10000
WeatherLight Snow
Cloud Cover
Transition Height700 m./4000 ft.
Transition LevelFL60
SQUAWK